Akvile — LYJM — position and weather

sailwx.info

Track history (hours):
 
Tides and Currents Weather Stations Pressure Air Temp Water Temp Dewpoint Dewpoint Depression Visibility Wind Speed Wind Dir Waves Ship Positions

Akvile

Last reported at 2014-Jul-24 12:33 UTC. Time now 2014-Jul-24 13:05 UTC.
Position N 43°16' E 009°43'.

Length 103 m; draft 4.9 m.

Type: Cargo ship. MMSI: 277073000.

Date/timePositionNaut miles runAvg speedWind from/ knotsBaromVisibWave heightAir tempDewpointWater temp
2014-Jul-24 12:33N 43°16' E 009°43'10711.3
2014-Jul-24 03:08N 41°31' E 010°08'2811.0
2014-Jul-24 00:33N 41°03' E 010°16'3310.9
2014-Jul-23 21:33N 40°31' E 010°23'281 6.0
2014-Jul-21 22:28N 35°50' E 010°39'0 0.0
2014-Jul-21 21:19N 35°50' E 010°39'0 0.0
2014-Jul-21 19:31N 35°50' E 010°39'0 0.0
2014-Jul-21 15:31N 35°50' E 010°39'0 0.0
2014-Jul-21 14:31N 35°50' E 010°39'0 0.0
2014-Jul-21 05:32N 35°50' E 010°39'20 6.7
2014-Jul-21 02:33N 35°52' E 011°03'9 8.8
2014-Jul-21 01:30N 35°46' E 011°12'1010.1
2014-Jul-21 00:33N 35°38' E 011°18'1010.0
2014-Jul-20 23:33N 35°29' E 011°24'10 9.9
2014-Jul-20 22:33N 35°21' E 011°30'1010.0
2014-Jul-20 21:33N 35°12' E 011°36'1010.1
2014-Jul-20 20:33N 35°03' E 011°42'1110.8
2014-Jul-20 19:30N 34°54' E 011°50'1210.1
2014-Jul-20 18:17N 34°43' E 011°41'810.5
2014-Jul-20 17:32N 34°40' E 011°33'1010.3
2014-Jul-20 16:33N 34°36' E 011°21'1010.3
2014-Jul-20 15:33N 34°32' E 011°10'1010.0
2014-Jul-20 14:33N 34°28' E 010°59'18 8.6
2014-Jul-20 12:27N 34°43' E 010°47'3 0.2
2014-Jul-19 16:34N 34°41' E 010°49'4 3.9
2014-Jul-19 15:34N 34°37' E 010°50'10 9.8
2014-Jul-19 14:34N 34°28' E 010°54'195 9.3
2014-Jul-18 17:32N 37°41' E 011°18'1111.3
2014-Jul-18 16:33N 37°52' E 011°15'27611.0
2014-Jul-17 15:22N 42°21' E 009°53'2011.0
2014-Jul-17 13:33N 42°40' E 009°47'1111.0
2014-Jul-17 12:33N 42°51' E 009°43'1010.5
2014-Jul-17 11:34N 43°01' E 009°40'1110.5
2014-Jul-17 10:33N 43°12' E 009°42'1110.6
2014-Jul-17 09:33N 43°22' E 009°44'1110.9
2014-Jul-17 08:34N 43°33' E 009°46'1111.2
2014-Jul-17 07:34N 43°44' E 009°49'1111.3
2014-Jul-17 06:34N 43°55' E 009°51'1010.2
2014-Jul-17 05:34N 44°05' E 009°50'1 1.2
2014-Jul-17 04:32N 44°07' E 009°50'0 0.0
2014-Jul-17 03:32N 44°07' E 009°50'0 0.0
2014-Jul-17 02:32N 44°07' E 009°50'0 0.0
2014-Jul-17 01:29N 44°07' E 009°50'0 0.0
2014-Jul-17 00:32N 44°07' E 009°50'0 0.0
2014-Jul-16 23:32N 44°07' E 009°50'0 0.0
2014-Jul-16 22:32N 44°07' E 009°50'0 0.0
2014-Jul-16 21:32N 44°07' E 009°50'0 0.0
2014-Jul-16 20:32N 44°07' E 009°50'0 0.0
2014-Jul-16 19:32N 44°07' E 009°50'0 0.0
2014-Jul-16 18:32N 44°07' E 009°50'0 0.0
2014-Jul-16 17:29N 44°07' E 009°50'0 0.0
2014-Jul-16 16:32N 44°07' E 009°50'0 0.0
2014-Jul-16 15:32N 44°07' E 009°50'0 0.0
2014-Jul-16 14:29N 44°07' E 009°50'0 0.0
2014-Jul-16 13:32N 44°07' E 009°50'0 0.0
2014-Jul-16 12:29N 44°07' E 009°50'0 0.0
2014-Jul-16 11:23N 44°07' E 009°50'0 0.0
2014-Jul-16 10:32N 44°07' E 009°50'0 0.0
2014-Jul-16 09:29N 44°07' E 009°50'0 0.0
2014-Jul-16 08:29N 44°07' E 009°50'1 0.9
2014-Jul-16 07:32N 44°06' E 009°51'0 0.0
2014-Jul-16 06:26N 44°06' E 009°51'0 0.0
2014-Jul-16 05:32N 44°06' E 009°51'0 0.0
2014-Jul-16 04:32N 44°06' E 009°51'0 0.0
2014-Jul-16 03:32N 44°06' E 009°51'0 0.0
2014-Jul-16 02:32N 44°06' E 009°51'0 0.0
2014-Jul-16 01:32N 44°06' E 009°51'0 0.0
2014-Jul-16 00:32N 44°06' E 009°51'0 0.0
2014-Jul-15 23:29N 44°06' E 009°51'0 0.0
2014-Jul-15 22:32N 44°06' E 009°51'0 0.2
2014-Jul-15 21:33N 44°06' E 009°51'8 8.0
2014-Jul-15 20:33N 43°58' E 009°54'1111.0
2014-Jul-15 19:34N 43°48' E 009°51'1111.0
2014-Jul-15 18:34N 43°37' E 009°48'1111.1
2014-Jul-15 17:34N 43°26' E 009°46'1212.0
2014-Jul-15 16:34N 43°14' E 009°43'1212.3
2014-Jul-15 15:33N 43°02' E 009°40'1211.6
2014-Jul-15 14:33N 42°50' E 009°43'1111.2
2014-Jul-15 13:34N 42°39' E 009°46'1511.0
2014-Jul-15 12:11N 42°25' E 009°50'710.9
2014-Jul-15 11:33N 42°18' E 009°52'1110.9
2014-Jul-15 10:33N 42°07' E 009°54'1110.6
2014-Jul-15 09:34N 41°57' E 009°57'  
Track history (hours):
 
Tides and Currents Weather Stations Pressure Air Temp Water Temp Dewpoint Dewpoint Depression Visibility Wind Speed Wind Dir Waves Ship Positions

Akvile

Last reported at 2014-Jul-24 12:33 UTC. Time now 2014-Jul-24 13:05 UTC.
Position N 43°16' E 009°43'.

Length 103 m; draft 4.9 m.

Type: Cargo ship. MMSI: 277073000.

Date/timePositionNaut miles runAvg speedWind from/ knotsBaromVisibWave heightAir tempDewpointWater temp
2014-Jul-24 12:33N 43°16' E 009°43'10711.3
2014-Jul-24 03:08N 41°31' E 010°08'2811.0
2014-Jul-24 00:33N 41°03' E 010°16'3310.9
2014-Jul-23 21:33N 40°31' E 010°23'281 6.0
2014-Jul-21 22:28N 35°50' E 010°39'0 0.0
2014-Jul-21 21:19N 35°50' E 010°39'0 0.0
2014-Jul-21 19:31N 35°50' E 010°39'0 0.0
2014-Jul-21 15:31N 35°50' E 010°39'0 0.0
2014-Jul-21 14:31N 35°50' E 010°39'0 0.0
2014-Jul-21 05:32N 35°50' E 010°39'20 6.7
2014-Jul-21 02:33N 35°52' E 011°03'9 8.8
2014-Jul-21 01:30N 35°46' E 011°12'1010.1
2014-Jul-21 00:33N 35°38' E 011°18'1010.0
2014-Jul-20 23:33N 35°29' E 011°24'10 9.9
2014-Jul-20 22:33N 35°21' E 011°30'1010.0
2014-Jul-20 21:33N 35°12' E 011°36'1010.1
2014-Jul-20 20:33N 35°03' E 011°42'1110.8
2014-Jul-20 19:30N 34°54' E 011°50'1210.1
2014-Jul-20 18:17N 34°43' E 011°41'810.5
2014-Jul-20 17:32N 34°40' E 011°33'1010.3
2014-Jul-20 16:33N 34°36' E 011°21'1010.3
2014-Jul-20 15:33N 34°32' E 011°10'1010.0
2014-Jul-20 14:33N 34°28' E 010°59'18 8.6
2014-Jul-20 12:27N 34°43' E 010°47'3 0.2
2014-Jul-19 16:34N 34°41' E 010°49'4 3.9
2014-Jul-19 15:34N 34°37' E 010°50'10 9.8
2014-Jul-19 14:34N 34°28' E 010°54'195 9.3
2014-Jul-18 17:32N 37°41' E 011°18'1111.3
2014-Jul-18 16:33N 37°52' E 011°15'27611.0
2014-Jul-17 15:22N 42°21' E 009°53'2011.0
2014-Jul-17 13:33N 42°40' E 009°47'1111.0
2014-Jul-17 12:33N 42°51' E 009°43'1010.5
2014-Jul-17 11:34N 43°01' E 009°40'1110.5
2014-Jul-17 10:33N 43°12' E 009°42'1110.6
2014-Jul-17 09:33N 43°22' E 009°44'1110.9
2014-Jul-17 08:34N 43°33' E 009°46'1111.2
2014-Jul-17 07:34N 43°44' E 009°49'1111.3
2014-Jul-17 06:34N 43°55' E 009°51'1010.2
2014-Jul-17 05:34N 44°05' E 009°50'1 1.2
2014-Jul-17 04:32N 44°07' E 009°50'0 0.0
2014-Jul-17 03:32N 44°07' E 009°50'0 0.0
2014-Jul-17 02:32N 44°07' E 009°50'0 0.0
2014-Jul-17 01:29N 44°07' E 009°50'0 0.0
2014-Jul-17 00:32N 44°07' E 009°50'0 0.0
2014-Jul-16 23:32N 44°07' E 009°50'0 0.0
2014-Jul-16 22:32N 44°07' E 009°50'0 0.0
2014-Jul-16 21:32N 44°07' E 009°50'0 0.0
2014-Jul-16 20:32N 44°07' E 009°50'0 0.0
2014-Jul-16 19:32N 44°07' E 009°50'0 0.0
2014-Jul-16 18:32N 44°07' E 009°50'0 0.0
2014-Jul-16 17:29N 44°07' E 009°50'0 0.0
2014-Jul-16 16:32N 44°07' E 009°50'0 0.0
2014-Jul-16 15:32N 44°07' E 009°50'0 0.0
2014-Jul-16 14:29N 44°07' E 009°50'0 0.0
2014-Jul-16 13:32N 44°07' E 009°50'0 0.0
2014-Jul-16 12:29N 44°07' E 009°50'0 0.0
2014-Jul-16 11:23N 44°07' E 009°50'0 0.0
2014-Jul-16 10:32N 44°07' E 009°50'0 0.0
2014-Jul-16 09:29N 44°07' E 009°50'0 0.0
2014-Jul-16 08:29N 44°07' E 009°50'1 0.9
2014-Jul-16 07:32N 44°06' E 009°51'0 0.0
2014-Jul-16 06:26N 44°06' E 009°51'0 0.0
2014-Jul-16 05:32N 44°06' E 009°51'0 0.0
2014-Jul-16 04:32N 44°06' E 009°51'0 0.0
2014-Jul-16 03:32N 44°06' E 009°51'0 0.0
2014-Jul-16 02:32N 44°06' E 009°51'0 0.0
2014-Jul-16 01:32N 44°06' E 009°51'0 0.0
2014-Jul-16 00:32N 44°06' E 009°51'0 0.0
2014-Jul-15 23:29N 44°06' E 009°51'0 0.0
2014-Jul-15 22:32N 44°06' E 009°51'0 0.2
2014-Jul-15 21:33N 44°06' E 009°51'8 8.0
2014-Jul-15 20:33N 43°58' E 009°54'1111.0
2014-Jul-15 19:34N 43°48' E 009°51'1111.0
2014-Jul-15 18:34N 43°37' E 009°48'1111.1
2014-Jul-15 17:34N 43°26' E 009°46'1212.0
2014-Jul-15 16:34N 43°14' E 009°43'1212.3
2014-Jul-15 15:33N 43°02' E 009°40'1211.6
2014-Jul-15 14:33N 42°50' E 009°43'1111.2
2014-Jul-15 13:34N 42°39' E 009°46'1511.0
2014-Jul-15 12:11N 42°25' E 009°50'710.9
2014-Jul-15 11:33N 42°18' E 009°52'1110.9
2014-Jul-15 10:33N 42°07' E 009°54'1110.6
2014-Jul-15 09:34N 41°57' E 009°57'  

Dump ship's entire track history